createdAt,value
2022-11-12T00:00:33.000Z,275.46
2022-11-12T00:02:39.000Z,275.4
2022-11-12T00:04:06.000Z,275.4
2022-11-12T00:06:12.000Z,275.34
2022-11-12T00:07:38.000Z,275.4
2022-11-12T00:09:44.000Z,275.4
2022-11-12T00:11:11.000Z,275.34
2022-11-12T00:13:17.000Z,275.4
2022-11-12T00:14:44.000Z,275.4
2022-11-12T00:16:50.000Z,275.4
2022-11-12T00:18:16.000Z,275.4
2022-11-12T00:20:22.000Z,275.27
2022-11-12T00:21:49.000Z,275.34
2022-11-12T00:23:55.000Z,275.34
2022-11-12T00:25:21.000Z,275.34
2022-11-12T00:27:27.000Z,275.34
2022-11-12T00:28:54.000Z,275.34
2022-11-12T00:31:00.000Z,275.34
2022-11-12T00:33:51.000Z,275.46
2022-11-12T00:35:17.000Z,275.52
2022-11-12T00:37:23.000Z,275.52
2022-11-12T00:38:50.000Z,275.52
2022-11-12T00:40:56.000Z,275.52
2022-11-12T00:42:23.000Z,275.52
2022-11-12T00:44:29.000Z,275.46
2022-11-12T00:45:55.000Z,275.46
2022-11-12T00:48:01.000Z,275.46
2022-11-12T00:49:28.000Z,275.4
2022-11-12T00:51:34.000Z,275.34
2022-11-12T00:53:00.000Z,275.4
2022-11-12T00:55:07.000Z,275.34
2022-11-12T00:56:33.000Z,275.27
2022-11-12T00:58:39.000Z,275.27
2022-11-12T01:00:06.000Z,275.21
2022-11-12T01:02:12.000Z,275.27
2022-11-12T01:03:39.000Z,275.21
2022-11-12T01:05:45.000Z,275.15
2022-11-12T01:07:11.000Z,275.15
2022-11-12T01:09:17.000Z,275.09
2022-11-12T01:12:09.000Z,275.09
2022-11-12T01:13:35.000Z,275.02
2022-11-12T01:15:47.000Z,274.96
2022-11-12T01:17:14.000Z,274.96
2022-11-12T01:19:20.000Z,274.9
2022-11-12T01:20:47.000Z,274.96
2022-11-12T01:22:53.000Z,274.9
2022-11-12T01:24:19.000Z,274.96
2022-11-12T01:26:25.000Z,274.9
2022-11-12T01:27:52.000Z,274.96
2022-11-12T01:29:58.000Z,275.02
2022-11-12T01:31:25.000Z,275.02
2022-11-12T01:33:31.000Z,275.02
2022-11-12T01:34:57.000Z,275.02
2022-11-12T01:37:03.000Z,274.96
2022-11-12T01:38:30.000Z,274.96
2022-11-12T01:40:36.000Z,275.02
2022-11-12T01:42:02.000Z,274.96
2022-11-12T01:44:08.000Z,274.9
2022-11-12T01:45:35.000Z,274.96
2022-11-12T01:47:41.000Z,274.96
2022-11-12T01:50:32.000Z,274.96
2022-11-12T01:51:58.000Z,274.96
2022-11-12T01:54:04.000Z,274.96
2022-11-12T01:55:31.000Z,274.96
2022-11-12T01:57:37.000Z,274.9
2022-11-12T01:59:03.000Z,274.9
2022-11-12T02:01:10.000Z,274.9
2022-11-12T02:02:36.000Z,274.96
2022-11-12T02:04:42.000Z,274.96
2022-11-12T02:06:09.000Z,274.96
2022-11-12T02:08:15.000Z,274.9
2022-11-12T02:09:41.000Z,274.84
2022-11-12T02:11:47.000Z,274.77
2022-11-12T02:13:14.000Z,274.77
2022-11-12T02:15:20.000Z,274.77
2022-11-12T02:16:47.000Z,274.71
2022-11-12T02:18:53.000Z,274.77
2022-11-12T02:20:19.000Z,274.84
2022-11-12T02:22:25.000Z,274.84
2022-11-12T02:23:52.000Z,274.77
2022-11-12T02:25:58.000Z,274.65
2022-11-12T02:28:49.000Z,274.65
2022-11-12T02:30:16.000Z,274.65
2022-11-12T02:32:22.000Z,274.65
2022-11-12T02:33:48.000Z,274.65
2022-11-12T02:35:54.000Z,274.71
2022-11-12T02:37:21.000Z,274.71
2022-11-12T02:39:27.000Z,274.77
2022-11-12T02:40:53.000Z,274.71
2022-11-12T02:43:00.000Z,274.71
2022-11-12T02:44:26.000Z,274.71
2022-11-12T02:46:32.000Z,274.71
2022-11-12T02:47:59.000Z,274.77
2022-11-12T02:50:05.000Z,274.77
2022-11-12T02:51:31.000Z,274.71
2022-11-12T02:53:37.000Z,274.65
2022-11-12T02:55:04.000Z,274.59
2022-11-12T02:57:10.000Z,274.59
2022-11-12T02:58:37.000Z,274.65
2022-11-12T03:00:43.000Z,274.65
2022-11-12T03:02:09.000Z,274.65
2022-11-12T03:04:15.000Z,274.59
2022-11-12T03:07:06.000Z,274.4
2022-11-12T03:08:33.000Z,274.4
2022-11-12T03:10:39.000Z,274.34
2022-11-12T03:12:05.000Z,274.34
2022-11-12T03:14:12.000Z,274.34
2022-11-12T03:15:38.000Z,274.4
2022-11-12T03:17:44.000Z,274.4
2022-11-12T03:19:11.000Z,274.34
2022-11-12T03:21:17.000Z,274.27
2022-11-12T03:22:43.000Z,274.27
2022-11-12T03:24:49.000Z,274.27
2022-11-12T03:26:16.000Z,274.27
2022-11-12T03:28:22.000Z,274.34
2022-11-12T03:29:49.000Z,274.27
2022-11-12T03:31:55.000Z,274.27
2022-11-12T03:33:22.000Z,274.34
2022-11-12T03:35:28.000Z,274.34
2022-11-12T03:36:54.000Z,274.27
2022-11-12T03:39:01.000Z,274.21
2022-11-12T03:40:27.000Z,274.27
2022-11-12T03:42:33.000Z,274.34
2022-11-12T03:45:25.000Z,274.34
2022-11-12T03:46:51.000Z,274.4
2022-11-12T03:48:57.000Z,274.4
2022-11-12T03:50:24.000Z,274.34
2022-11-12T03:52:30.000Z,274.27
2022-11-12T03:53:56.000Z,274.27
2022-11-12T03:56:02.000Z,274.27
2022-11-12T03:57:29.000Z,274.34
2022-11-12T03:59:35.000Z,274.34
2022-11-12T04:01:01.000Z,274.34
2022-11-12T04:03:08.000Z,274.34
2022-11-12T04:04:34.000Z,274.34
2022-11-12T04:06:40.000Z,274.34
2022-11-12T04:08:07.000Z,274.27
2022-11-12T04:10:13.000Z,274.21
2022-11-12T04:11:39.000Z,274.21
2022-11-12T04:13:46.000Z,274.21
2022-11-12T04:15:12.000Z,274.21
2022-11-12T04:17:18.000Z,274.15
2022-11-12T04:18:45.000Z,274.15
2022-11-12T04:20:51.000Z,274.09
2022-11-12T04:23:42.000Z,273.96
2022-11-12T04:25:08.000Z,273.96
2022-11-12T04:27:14.000Z,273.96
2022-11-12T04:28:41.000Z,273.9
2022-11-12T04:30:47.000Z,273.9
2022-11-12T04:32:14.000Z,273.9
2022-11-12T04:34:20.000Z,273.9
2022-11-12T04:35:46.000Z,273.9
2022-11-12T04:37:52.000Z,273.9
2022-11-12T04:39:19.000Z,273.9
2022-11-12T04:41:25.000Z,273.84
2022-11-12T04:42:51.000Z,273.84
2022-11-12T04:44:57.000Z,273.77
2022-11-12T04:46:24.000Z,273.71
2022-11-12T04:48:30.000Z,273.65
2022-11-12T04:49:57.000Z,273.71
2022-11-12T04:52:03.000Z,273.71
2022-11-12T04:53:29.000Z,273.71
2022-11-12T04:55:36.000Z,273.71
2022-11-12T04:57:02.000Z,273.71
2022-11-12T04:59:08.000Z,273.77
2022-11-12T05:01:59.000Z,273.84
2022-11-12T05:03:26.000Z,273.84
2022-11-12T05:05:32.000Z,273.9
2022-11-12T05:06:58.000Z,273.9
2022-11-12T05:09:05.000Z,273.84
2022-11-12T05:10:31.000Z,273.84
2022-11-12T05:12:37.000Z,273.84
2022-11-12T05:14:04.000Z,273.84
2022-11-12T05:16:10.000Z,273.96
2022-11-12T05:17:37.000Z,273.96
2022-11-12T05:19:43.000Z,273.9
2022-11-12T05:21:09.000Z,273.96
2022-11-12T05:23:15.000Z,274.02
2022-11-12T05:24:42.000Z,274.02
2022-11-12T05:26:48.000Z,274.02
2022-11-12T05:28:14.000Z,274.02
2022-11-12T05:30:21.000Z,274.02
2022-11-12T05:31:47.000Z,274.02
2022-11-12T05:33:53.000Z,273.96
2022-11-12T05:35:20.000Z,273.96
2022-11-12T05:37:26.000Z,273.96
2022-11-12T05:40:17.000Z,273.96
2022-11-12T05:41:44.000Z,273.96
2022-11-12T05:44:16.000Z,274.02
2022-11-12T05:45:42.000Z,274.09
2022-11-12T05:47:48.000Z,274.09
2022-11-12T05:49:15.000Z,274.09
2022-11-12T05:51:21.000Z,274.09
2022-11-12T05:52:48.000Z,274.15
2022-11-12T05:54:54.000Z,274.15
2022-11-12T05:56:20.000Z,274.09
2022-11-12T05:58:26.000Z,274.09
2022-11-12T05:59:53.000Z,274.02
2022-11-12T06:01:59.000Z,274.02
2022-11-12T06:03:26.000Z,273.96
2022-11-12T06:05:32.000Z,273.96
2022-11-12T06:06:58.000Z,273.96
2022-11-12T06:09:05.000Z,274.09
2022-11-12T06:10:31.000Z,274.09
2022-11-12T06:12:37.000Z,274.09
2022-11-12T06:14:04.000Z,274.15
2022-11-12T06:16:10.000Z,274.15
2022-11-12T06:19:01.000Z,274.02
2022-11-12T06:20:27.000Z,274.02
2022-11-12T06:22:33.000Z,274.09
2022-11-12T06:24:00.000Z,274.09
2022-11-12T06:26:06.000Z,274.09
2022-11-12T06:27:33.000Z,274.15
2022-11-12T06:29:39.000Z,274.09
2022-11-12T06:31:05.000Z,274.09
2022-11-12T06:33:11.000Z,274.15
2022-11-12T06:34:38.000Z,274.15
2022-11-12T06:36:44.000Z,274.15
2022-11-12T06:38:10.000Z,274.15
2022-11-12T06:40:17.000Z,274.15
2022-11-12T06:41:43.000Z,274.15
2022-11-12T06:43:49.000Z,274.09
2022-11-12T06:45:16.000Z,274.09
2022-11-12T06:47:22.000Z,274.15
2022-11-12T06:48:48.000Z,274.15
2022-11-12T06:50:54.000Z,274.15
2022-11-12T06:52:21.000Z,274.15
2022-11-12T06:54:27.000Z,274.15
2022-11-12T06:57:18.000Z,274.21
2022-11-12T06:58:45.000Z,274.15
2022-11-12T07:00:51.000Z,274.15
2022-11-12T07:02:17.000Z,274.15
2022-11-12T07:04:24.000Z,274.21
2022-11-12T07:05:50.000Z,274.21
2022-11-12T07:07:56.000Z,274.21
2022-11-12T07:09:23.000Z,274.21
2022-11-12T07:11:29.000Z,274.21
2022-11-12T07:12:55.000Z,274.27
2022-11-12T07:15:01.000Z,274.27
2022-11-12T07:16:28.000Z,274.27
2022-11-12T07:18:34.000Z,274.34
2022-11-12T07:20:00.000Z,274.34
2022-11-12T07:22:08.000Z,274.34
2022-11-12T07:23:34.000Z,274.34
2022-11-12T07:25:40.000Z,274.4
2022-11-12T07:27:07.000Z,274.46
2022-11-12T07:29:13.000Z,274.46
2022-11-12T07:31:00.000Z,274.46
2022-11-12T07:33:06.000Z,274.59
2022-11-12T07:35:57.000Z,274.59
2022-11-12T07:37:24.000Z,274.65
2022-11-12T07:39:30.000Z,274.59
2022-11-12T07:40:57.000Z,274.59
2022-11-12T07:43:03.000Z,274.59
2022-11-12T07:44:29.000Z,274.59
2022-11-12T07:46:35.000Z,274.65
2022-11-12T07:48:02.000Z,274.59
2022-11-12T07:50:08.000Z,274.59
2022-11-12T07:51:35.000Z,274.52
2022-11-12T07:53:41.000Z,274.52
2022-11-12T07:55:07.000Z,274.59
2022-11-12T07:57:13.000Z,274.65
2022-11-12T07:58:40.000Z,274.71
2022-11-12T08:00:46.000Z,274.71
2022-11-12T08:02:13.000Z,274.71
2022-11-12T08:04:19.000Z,274.71
2022-11-12T08:05:45.000Z,274.84
2022-11-12T08:07:51.000Z,274.9
2022-11-12T08:09:18.000Z,274.96
2022-11-12T08:11:24.000Z,274.96
2022-11-12T08:14:16.000Z,274.96
2022-11-12T08:15:42.000Z,275.02
2022-11-12T08:17:56.000Z,275.09
2022-11-12T08:19:22.000Z,275.21
2022-11-12T08:21:28.000Z,275.21
2022-11-12T08:22:55.000Z,275.21
2022-11-12T08:25:01.000Z,275.34
2022-11-12T08:26:28.000Z,275.46
2022-11-12T08:28:34.000Z,275.52
2022-11-12T08:30:00.000Z,275.52
2022-11-12T08:32:06.000Z,275.59
2022-11-12T08:33:33.000Z,275.65
2022-11-12T08:35:39.000Z,275.71
2022-11-12T08:37:05.000Z,275.77
2022-11-12T08:39:12.000Z,275.59
2022-11-12T08:40:38.000Z,275.59
2022-11-12T08:42:45.000Z,275.46
2022-11-12T08:44:11.000Z,275.52
2022-11-12T08:46:17.000Z,275.65
2022-11-12T08:47:44.000Z,275.77
2022-11-12T08:49:50.000Z,275.9
2022-11-12T08:52:41.000Z,275.9
2022-11-12T08:54:07.000Z,276.02
2022-11-12T08:56:13.000Z,275.96
2022-11-12T08:57:40.000Z,275.9
2022-11-12T08:59:46.000Z,275.96
2022-11-12T09:01:12.000Z,276.02
2022-11-12T09:03:18.000Z,275.96
2022-11-12T09:04:45.000Z,276.02
2022-11-12T09:06:51.000Z,275.96
2022-11-12T09:08:18.000Z,275.96
2022-11-12T09:10:25.000Z,276.09
2022-11-12T09:11:51.000Z,276.02
2022-11-12T09:13:57.000Z,275.96
2022-11-12T09:15:24.000Z,275.96
2022-11-12T09:17:42.000Z,276.09
2022-11-12T09:19:08.000Z,276.21
2022-11-12T09:21:14.000Z,276.27
2022-11-12T09:22:41.000Z,276.34
2022-11-12T09:24:47.000Z,276.52
2022-11-12T09:26:14.000Z,276.59
2022-11-12T09:28:20.000Z,276.59
2022-11-12T09:31:11.000Z,276.65
2022-11-12T09:32:38.000Z,276.77
2022-11-12T09:34:44.000Z,276.77
2022-11-12T09:36:10.000Z,276.84
2022-11-12T09:38:16.000Z,276.9
2022-11-12T09:39:43.000Z,276.96
2022-11-12T09:41:49.000Z,277.09
2022-11-12T09:43:15.000Z,277.09
2022-11-12T09:45:21.000Z,277.09
2022-11-12T09:46:48.000Z,277.15
2022-11-12T09:48:54.000Z,277.15
2022-11-12T09:50:21.000Z,277.21
2022-11-12T09:52:27.000Z,277.21
2022-11-12T09:53:53.000Z,277.27
2022-11-12T09:55:59.000Z,277.34
2022-11-12T09:57:26.000Z,277.34
2022-11-12T09:59:32.000Z,277.27
2022-11-12T10:00:58.000Z,277.27
2022-11-12T10:03:04.000Z,277.4
2022-11-12T10:04:31.000Z,277.4
2022-11-12T10:06:37.000Z,277.46
2022-11-12T10:09:28.000Z,277.46
2022-11-12T10:10:55.000Z,277.52
2022-11-12T10:13:01.000Z,277.52
2022-11-12T10:14:27.000Z,277.59
2022-11-12T10:16:33.000Z,277.65
2022-11-12T10:18:00.000Z,277.71
2022-11-12T10:20:06.000Z,277.77
2022-11-12T10:21:32.000Z,277.84
2022-11-12T10:23:39.000Z,277.96
2022-11-12T10:25:05.000Z,277.96
2022-11-12T10:27:11.000Z,278.02
2022-11-12T10:28:38.000Z,278.02
2022-11-12T10:30:44.000Z,278.09
2022-11-12T10:32:10.000Z,278.15
2022-11-12T10:34:16.000Z,278.21
2022-11-12T10:35:43.000Z,278.21
2022-11-12T10:37:49.000Z,278.27
2022-11-12T10:39:15.000Z,278.34
2022-11-12T10:41:22.000Z,278.34
2022-11-12T10:42:48.000Z,278.52
2022-11-12T10:44:54.000Z,278.46
2022-11-12T10:47:46.000Z,278.46
2022-11-12T10:49:12.000Z,278.59
2022-11-12T10:51:18.000Z,278.59
2022-11-12T10:52:45.000Z,278.52
2022-11-12T10:54:51.000Z,278.65
2022-11-12T10:56:19.000Z,278.65
2022-11-12T10:58:25.000Z,278.65
2022-11-12T10:59:53.000Z,278.71
2022-11-12T11:01:59.000Z,278.84
2022-11-12T11:03:25.000Z,278.84
2022-11-12T11:05:31.000Z,278.96
2022-11-12T11:06:58.000Z,279.02
2022-11-12T11:09:04.000Z,279.02
2022-11-12T11:10:31.000Z,279.02
2022-11-12T11:12:37.000Z,279.09
2022-11-12T11:14:03.000Z,279.15
2022-11-12T11:16:09.000Z,279.21
2022-11-12T11:17:36.000Z,279.27
2022-11-12T11:19:42.000Z,279.27
2022-11-12T11:21:08.000Z,279.34
2022-11-12T11:23:15.000Z,279.34
2022-11-12T11:26:06.000Z,279.52
2022-11-12T11:27:32.000Z,279.65
2022-11-12T11:29:38.000Z,279.59
2022-11-12T11:31:05.000Z,279.59
2022-11-12T11:33:11.000Z,279.52
2022-11-12T11:34:37.000Z,279.65
2022-11-12T11:36:43.000Z,279.71
2022-11-12T11:38:10.000Z,279.71
2022-11-12T11:40:16.000Z,279.65
2022-11-12T11:41:43.000Z,279.65
2022-11-12T11:43:49.000Z,279.84
2022-11-12T11:45:15.000Z,279.84
2022-11-12T11:47:22.000Z,279.84
2022-11-12T11:48:58.000Z,279.84
2022-11-12T11:51:04.000Z,279.9
2022-11-12T11:52:31.000Z,279.96
2022-11-12T11:54:37.000Z,279.96
2022-11-12T11:56:03.000Z,279.96
2022-11-12T11:58:09.000Z,279.96
2022-11-12T11:59:36.000Z,279.96
2022-11-12T12:01:42.000Z,280.02
2022-11-12T12:04:33.000Z,280.09
2022-11-12T12:06:00.000Z,280.21
2022-11-12T12:08:06.000Z,280.15
2022-11-12T12:09:32.000Z,280.21
2022-11-12T12:11:38.000Z,280.34
2022-11-12T12:13:05.000Z,280.34
2022-11-12T12:15:11.000Z,280.34
2022-11-12T12:16:37.000Z,280.4
2022-11-12T12:18:44.000Z,280.46
2022-11-12T12:20:10.000Z,280.52
2022-11-12T12:22:16.000Z,280.46
2022-11-12T12:23:43.000Z,280.59
2022-11-12T12:25:49.000Z,280.59
2022-11-12T12:27:20.000Z,280.59
2022-11-12T12:29:26.000Z,280.71
2022-11-12T12:30:53.000Z,280.71
2022-11-12T12:32:59.000Z,280.84
2022-11-12T12:34:25.000Z,280.84
2022-11-12T12:36:31.000Z,280.84
2022-11-12T12:37:58.000Z,280.84
2022-11-12T12:40:04.000Z,280.9
2022-11-12T12:42:55.000Z,281.02
2022-11-12T12:44:22.000Z,281.02
2022-11-12T12:46:28.000Z,281.02
2022-11-12T12:47:54.000Z,281.02
2022-11-12T12:50:00.000Z,281.09
2022-11-12T12:51:27.000Z,281.09
2022-11-12T12:53:33.000Z,281.09
2022-11-12T12:55:00.000Z,281.09
2022-11-12T12:57:06.000Z,281.15
2022-11-12T12:58:32.000Z,281.15
2022-11-12T13:00:38.000Z,281.21
2022-11-12T13:02:05.000Z,281.21
2022-11-12T13:04:11.000Z,281.21
2022-11-12T13:05:37.000Z,281.27
2022-11-12T13:07:44.000Z,281.27
2022-11-12T13:09:10.000Z,281.34
2022-11-12T13:11:16.000Z,281.34
2022-11-12T13:12:43.000Z,281.4
2022-11-12T13:14:49.000Z,281.4
2022-11-12T13:16:15.000Z,281.46
2022-11-12T13:18:22.000Z,281.46
2022-11-12T13:21:13.000Z,281.46
2022-11-12T13:22:40.000Z,281.52
2022-11-12T13:24:46.000Z,281.59
2022-11-12T13:26:12.000Z,281.52
2022-11-12T13:28:18.000Z,281.59
2022-11-12T13:29:45.000Z,281.59
2022-11-12T13:31:51.000Z,281.59
2022-11-12T13:33:17.000Z,281.65
2022-11-12T13:35:23.000Z,281.71
2022-11-12T13:36:50.000Z,281.71
2022-11-12T13:38:56.000Z,281.77
2022-11-12T13:40:27.000Z,281.77
2022-11-12T13:42:33.000Z,281.77
2022-11-12T13:43:59.000Z,281.84
2022-11-12T13:46:06.000Z,281.77
2022-11-12T13:47:32.000Z,281.84
2022-11-12T13:49:38.000Z,281.77
2022-11-12T13:51:05.000Z,281.77
2022-11-12T13:53:11.000Z,281.77
2022-11-12T13:54:37.000Z,281.84
2022-11-12T13:56:43.000Z,281.84
2022-11-12T13:59:34.000Z,281.77
2022-11-12T14:01:01.000Z,281.84
2022-11-12T14:03:07.000Z,281.77
2022-11-12T14:04:34.000Z,281.84
2022-11-12T14:06:40.000Z,281.84
2022-11-12T14:08:06.000Z,281.84
2022-11-12T14:10:12.000Z,281.84
2022-11-12T14:11:39.000Z,281.96
2022-11-12T14:13:45.000Z,282.02
2022-11-12T14:15:12.000Z,282.02
2022-11-12T14:17:18.000Z,282.09
2022-11-12T14:18:47.000Z,282.15
2022-11-12T14:20:53.000Z,282.15
2022-11-12T14:22:19.000Z,282.15
2022-11-12T14:24:25.000Z,282.09
2022-11-12T14:25:52.000Z,282.15
2022-11-12T14:27:58.000Z,282.15
2022-11-12T14:29:25.000Z,282.15
2022-11-12T14:31:38.000Z,282.09
2022-11-12T14:33:05.000Z,282.09
2022-11-12T14:35:11.000Z,282.09
2022-11-12T14:38:02.000Z,282.02
2022-11-12T14:39:29.000Z,282.02
2022-11-12T14:41:35.000Z,281.96
2022-11-12T14:43:01.000Z,281.96
2022-11-12T14:45:07.000Z,281.96
2022-11-12T14:46:34.000Z,281.96
2022-11-12T14:48:40.000Z,281.9
2022-11-12T14:50:07.000Z,281.9
2022-11-12T14:52:13.000Z,281.84
2022-11-12T14:53:39.000Z,281.77
2022-11-12T14:55:45.000Z,281.71
2022-11-12T14:57:12.000Z,281.65
2022-11-12T14:59:18.000Z,281.59
2022-11-12T15:00:44.000Z,281.52
2022-11-12T15:02:51.000Z,281.52
2022-11-12T15:04:24.000Z,281.4
2022-11-12T15:06:30.000Z,281.4
2022-11-12T15:07:56.000Z,281.34
2022-11-12T15:10:02.000Z,281.27
2022-11-12T15:11:29.000Z,281.27
2022-11-12T15:13:35.000Z,281.21
2022-11-12T15:16:26.000Z,281.09
2022-11-12T15:17:53.000Z,281.02
2022-11-12T15:19:59.000Z,280.96
2022-11-12T15:21:27.000Z,280.96
2022-11-12T15:23:33.000Z,280.84
2022-11-12T15:24:59.000Z,280.84
2022-11-12T15:27:06.000Z,280.77
2022-11-12T15:28:32.000Z,280.77
2022-11-12T15:30:38.000Z,280.71
2022-11-12T15:32:05.000Z,280.65
2022-11-12T15:34:17.000Z,280.65
2022-11-12T15:35:44.000Z,280.59
2022-11-12T15:37:50.000Z,280.52
2022-11-12T15:39:16.000Z,280.52
2022-11-12T15:41:22.000Z,280.46
2022-11-12T15:42:49.000Z,280.4
2022-11-12T15:44:55.000Z,280.34
2022-11-12T15:46:22.000Z,280.27
2022-11-12T15:48:28.000Z,280.21
2022-11-12T15:49:54.000Z,280.15
2022-11-12T15:52:00.000Z,280.09
2022-11-12T15:54:51.000Z,279.96
2022-11-12T15:56:18.000Z,279.96
2022-11-12T15:58:24.000Z,279.96
2022-11-12T15:59:50.000Z,279.9
2022-11-12T16:01:56.000Z,279.84
2022-11-12T16:03:23.000Z,279.77
2022-11-12T16:05:29.000Z,279.77
2022-11-12T16:06:56.000Z,279.77
2022-11-12T16:09:02.000Z,279.65
2022-11-12T16:10:29.000Z,279.65
2022-11-12T16:12:35.000Z,279.52
2022-11-12T16:14:01.000Z,279.52
2022-11-12T16:16:07.000Z,279.46
2022-11-12T16:17:34.000Z,279.4
2022-11-12T16:19:40.000Z,279.34
2022-11-12T16:21:07.000Z,279.4
2022-11-12T16:23:13.000Z,279.34
2022-11-12T16:24:39.000Z,279.34
2022-11-12T16:26:45.000Z,279.27
2022-11-12T16:28:12.000Z,279.21
2022-11-12T16:30:18.000Z,279.15
2022-11-12T16:33:09.000Z,279.09
2022-11-12T16:34:36.000Z,279.09
2022-11-12T16:36:42.000Z,278.96
2022-11-12T16:38:08.000Z,279.02
2022-11-12T16:40:14.000Z,278.96
2022-11-12T16:41:41.000Z,278.9
2022-11-12T16:43:47.000Z,278.9
2022-11-12T16:45:14.000Z,278.9
2022-11-12T16:47:20.000Z,278.9
2022-11-12T16:48:46.000Z,278.84
2022-11-12T16:50:52.000Z,278.77
2022-11-12T16:52:19.000Z,278.71
2022-11-12T16:54:25.000Z,278.71
2022-11-12T16:55:51.000Z,278.65
2022-11-12T16:57:57.000Z,278.65
2022-11-12T16:59:24.000Z,278.59
2022-11-12T17:01:30.000Z,278.59
2022-11-12T17:02:57.000Z,278.59
2022-11-12T17:05:03.000Z,278.52
2022-11-12T17:06:30.000Z,278.52
2022-11-12T17:08:36.000Z,278.46
2022-11-12T17:11:27.000Z,278.4
2022-11-12T17:12:53.000Z,278.4
2022-11-12T17:14:59.000Z,278.34
2022-11-12T17:16:26.000Z,278.27
2022-11-12T17:18:32.000Z,278.15
2022-11-12T17:19:58.000Z,278.15
2022-11-12T17:22:05.000Z,278.09
2022-11-12T17:23:31.000Z,278.09
2022-11-12T17:25:37.000Z,278.02
2022-11-12T17:27:04.000Z,278.02
2022-11-12T17:29:10.000Z,277.96
2022-11-12T17:30:36.000Z,277.96
2022-11-12T17:32:42.000Z,277.96
2022-11-12T17:34:09.000Z,277.96
2022-11-12T17:36:15.000Z,277.9
2022-11-12T17:37:41.000Z,277.9
2022-11-12T17:39:48.000Z,277.9
2022-11-12T17:41:14.000Z,277.84
2022-11-12T17:43:20.000Z,277.77
2022-11-12T17:44:47.000Z,277.77
2022-11-12T17:46:53.000Z,277.71
2022-11-12T17:49:44.000Z,277.65
2022-11-12T17:51:10.000Z,277.65
2022-11-12T17:53:16.000Z,277.59
2022-11-12T17:54:43.000Z,277.59
2022-11-12T17:56:49.000Z,277.59
2022-11-12T17:58:15.000Z,277.59
2022-11-12T18:00:22.000Z,277.52
2022-11-12T18:01:48.000Z,277.52
2022-11-12T18:03:54.000Z,277.46
2022-11-12T18:05:21.000Z,277.52
2022-11-12T18:07:27.000Z,277.46
2022-11-12T18:08:53.000Z,277.46
2022-11-12T18:11:00.000Z,277.4
2022-11-12T18:12:26.000Z,277.4
2022-11-12T18:14:32.000Z,277.34
2022-11-12T18:15:59.000Z,277.4
2022-11-12T18:18:05.000Z,277.34
2022-11-12T18:19:31.000Z,277.27
2022-11-12T18:21:38.000Z,277.27
2022-11-12T18:23:04.000Z,277.27
2022-11-12T18:25:10.000Z,277.21
2022-11-12T18:28:02.000Z,277.21
2022-11-12T18:29:28.000Z,277.21
2022-11-12T18:31:34.000Z,277.09
2022-11-12T18:33:01.000Z,277.09
2022-11-12T18:35:07.000Z,277.09
2022-11-12T18:36:33.000Z,277.09
2022-11-12T18:38:39.000Z,277.09
2022-11-12T18:40:06.000Z,277.09
2022-11-12T18:42:12.000Z,277.09
2022-11-12T18:43:39.000Z,277.15
2022-11-12T18:45:45.000Z,277.09
2022-11-12T18:47:11.000Z,277.15
2022-11-12T18:49:17.000Z,277.02
2022-11-12T18:50:44.000Z,277.02
2022-11-12T18:52:50.000Z,276.96
2022-11-12T18:54:16.000Z,277.02
2022-11-12T18:56:22.000Z,277.02
2022-11-12T18:57:50.000Z,276.96
2022-11-12T18:59:56.000Z,276.9
2022-11-12T19:01:23.000Z,276.9
2022-11-12T19:03:29.000Z,276.9
2022-11-12T19:06:20.000Z,276.9
2022-11-12T19:07:47.000Z,276.9
2022-11-12T19:09:53.000Z,276.9
2022-11-12T19:11:19.000Z,276.84
2022-11-12T19:13:25.000Z,276.84
2022-11-12T19:14:52.000Z,276.77
2022-11-12T19:16:59.000Z,276.77
2022-11-12T19:18:25.000Z,276.77
2022-11-12T19:20:32.000Z,276.84
2022-11-12T19:21:58.000Z,276.84
2022-11-12T19:24:04.000Z,276.77
2022-11-12T19:25:31.000Z,276.77
2022-11-12T19:27:37.000Z,276.71
2022-11-12T19:29:04.000Z,276.65
2022-11-12T19:31:10.000Z,276.71
2022-11-12T19:32:36.000Z,276.65
2022-11-12T19:34:42.000Z,276.65
2022-11-12T19:36:09.000Z,276.65
2022-11-12T19:38:15.000Z,276.59
2022-11-12T19:39:41.000Z,276.65
2022-11-12T19:41:48.000Z,276.65
2022-11-12T19:44:39.000Z,276.52
2022-11-12T19:46:05.000Z,276.52
2022-11-12T19:48:11.000Z,276.46
2022-11-12T19:49:38.000Z,276.4
2022-11-12T19:51:44.000Z,276.4
2022-11-12T19:53:10.000Z,276.34
2022-11-12T19:55:16.000Z,276.34
2022-11-12T19:56:43.000Z,276.34
2022-11-12T19:58:49.000Z,276.4
2022-11-12T20:00:15.000Z,276.4
2022-11-12T20:02:22.000Z,276.27
2022-11-12T20:03:48.000Z,276.34
2022-11-12T20:05:54.000Z,276.34
2022-11-12T20:07:21.000Z,276.27
2022-11-12T20:09:27.000Z,276.27
2022-11-12T20:10:54.000Z,276.27
2022-11-12T20:13:00.000Z,276.21
2022-11-12T20:14:26.000Z,276.21
2022-11-12T20:16:32.000Z,276.21
2022-11-12T20:17:59.000Z,276.21
2022-11-12T20:20:05.000Z,276.15
2022-11-12T20:22:56.000Z,276.15
2022-11-12T20:24:23.000Z,276.21
2022-11-12T20:26:29.000Z,276.15
2022-11-12T20:27:55.000Z,276.15
2022-11-12T20:30:01.000Z,276.15
2022-11-12T20:31:28.000Z,276.15
2022-11-12T20:33:34.000Z,276.02
2022-11-12T20:35:06.000Z,276.02
2022-11-12T20:37:23.000Z,276.02
2022-11-12T20:38:50.000Z,275.96
2022-11-12T20:40:56.000Z,275.9
2022-11-12T20:42:22.000Z,275.9
2022-11-12T20:44:28.000Z,275.84
2022-11-12T20:45:55.000Z,275.84
2022-11-12T20:48:01.000Z,275.9
2022-11-12T20:49:27.000Z,275.9
2022-11-12T20:51:34.000Z,275.9
2022-11-12T20:53:00.000Z,275.9
2022-11-12T20:55:06.000Z,275.9
2022-11-12T20:56:33.000Z,275.84
2022-11-12T20:58:39.000Z,275.9
2022-11-12T21:01:30.000Z,275.84
2022-11-12T21:02:57.000Z,275.84
2022-11-12T21:05:03.000Z,275.9
2022-11-12T21:06:29.000Z,275.84
2022-11-12T21:08:35.000Z,275.9
2022-11-12T21:10:02.000Z,275.84
2022-11-12T21:12:08.000Z,275.84
2022-11-12T21:13:35.000Z,275.9
2022-11-12T21:15:41.000Z,275.84
2022-11-12T21:17:07.000Z,275.77
2022-11-12T21:19:13.000Z,275.84
2022-11-12T21:20:40.000Z,275.84
2022-11-12T21:22:46.000Z,275.84
2022-11-12T21:24:12.000Z,275.9
2022-11-12T21:26:18.000Z,275.9
2022-11-12T21:27:45.000Z,275.9
2022-11-12T21:29:51.000Z,275.84
2022-11-12T21:31:17.000Z,275.9
2022-11-12T21:33:24.000Z,275.9
2022-11-12T21:34:51.000Z,275.9
2022-11-12T21:36:57.000Z,275.84
2022-11-12T21:39:48.000Z,275.77
2022-11-12T21:41:15.000Z,275.77
2022-11-12T21:43:21.000Z,275.84
2022-11-12T21:44:47.000Z,275.71
2022-11-12T21:46:53.000Z,275.77
2022-11-12T21:48:20.000Z,275.77
2022-11-12T21:50:26.000Z,275.77
2022-11-12T21:51:52.000Z,275.84
2022-11-12T21:53:58.000Z,275.77
2022-11-12T21:55:25.000Z,275.84
2022-11-12T21:57:31.000Z,275.9
2022-11-12T21:58:57.000Z,275.84
2022-11-12T22:01:03.000Z,275.77
2022-11-12T22:02:30.000Z,275.77
2022-11-12T22:04:36.000Z,275.71
2022-11-12T22:06:03.000Z,275.77
2022-11-12T22:08:09.000Z,275.84
2022-11-12T22:09:35.000Z,275.84
2022-11-12T22:11:41.000Z,275.84
2022-11-12T22:13:08.000Z,275.77
2022-11-12T22:15:31.000Z,275.71
2022-11-12T22:18:22.000Z,275.59
2022-11-12T22:19:48.000Z,275.59
2022-11-12T22:21:54.000Z,275.52
2022-11-12T22:23:21.000Z,275.52
2022-11-12T22:25:27.000Z,275.52
2022-11-12T22:26:53.000Z,275.52
2022-11-12T22:29:02.000Z,275.46
2022-11-12T22:30:29.000Z,275.46
2022-11-12T22:32:35.000Z,275.52
2022-11-12T22:34:02.000Z,275.46
2022-11-12T22:36:08.000Z,275.4
2022-11-12T22:37:34.000Z,275.4
2022-11-12T22:39:40.000Z,275.34
2022-11-12T22:41:07.000Z,275.34
2022-11-12T22:43:13.000Z,275.34
2022-11-12T22:44:39.000Z,275.34
2022-11-12T22:46:45.000Z,275.34
2022-11-12T22:48:12.000Z,275.34
2022-11-12T22:50:18.000Z,275.34
2022-11-12T22:51:45.000Z,275.34